Highwood, MT (59450)

7:55 PM MDT on July 28, 2015 (GMT -0600)
APRSWXNET | | Change Station
CLOSE
Current Station
Personal Weather Station
Location: Highwood, MT
Elevation: 3487 ft
Nearby Weather Stations

Elev 3487 ft 47.50 °N, 110.86 °W | Updated 25 minutes ago

Partly Cloudy
Partly Cloudy
70 °F
Feels Like 70 °F
N
12
Wind Variable Wind from West
Gusts 16.0 mph

Today
High -- | Low -- °F
--% Chance of Precip.
Yesterday
High -- | Low -- °F
Precip. -- in
5:55 AM 9:03 PM
Waxing Gibbous, 93% visible
Pressure 30.09 in
Visibility 10.0 miles
Clouds Few 9000 ft
Dew Point 38 °F
Humidity 31%
Rainfall in
Snow Depth Not available.
UV 5 out of 12
Pollen 2.90 out of 12
Air Quality Not available.
Flu Activity Not available.
METAR KGFA 282256Z AUTO 27015G24KT 10SM FEW090 23/01 A3011 RMK AO2 SLP189 T02280014 TSNO $

More Conditions Fewer Conditions

Pressure 30.09 in
Visibility 10.0 miles
Clouds Few 9000 ft
Dew Point 38 °F
Humidity 31%
Rainfall in
Snow Depth Not available.
UV 5 out of 12
Pollen 2.90 out of 12
Air Quality Not available.
Flu Activity Not available.
METAR KGFA 282256Z AUTO 27015G24KT 10SM FEW090 23/01 A3011 RMK AO2 SLP189 T02280014 TSNO $

More Conditions Fewer Conditions

10-Day Weather Forecast

×

Almanac

Astronomy

Jul. 28, 2015 Rise Set
Actual Time
Civil Twilight
Nautical Twilight
Astronomical Twilight
Moon
Length of Visible Light
Length of Day
Tomorrow will be .
, % of the Moon is Illuminated

Today's Extremes

State Highs State Lows

Community

WunderPhotos

Upload Photos

1,842,002 photos uploaded!

WunderBlogs® & News

Nearby

Air Quality

  Air Quality AQ Index Pollutant
Not available.

Snow Depth

Station Depth Elevation

Earthquake Activity

City Distance Mag. Time & Date
Minimum magnitude displayed is 2.5.

Coastal Water Temperatures

Place Temperature

Stations

Nearby Weather Stations

Station Location Temp. Windchill Dew Point Humidity Wind Precip. Elev Updated Type